Insular — CSDD — position and weather

sailwx.info

Track history (hours):
 
Tides and Currents Weather Stations Pressure Air Temp Water Temp Dewpoint Dewpoint Depression Visibility Wind Speed Wind Dir Waves Ship Positions

Insular

Last reported at 2017-May-25 17:58 UTC. Time now 2017-May-25 18:01 UTC.
Position N 38°43' W 009°07'.

Length 120 m; draft 5.1 m.

Type: Ship (hazmat cat A). MMSI: 255806013.

Date/timePositionNaut miles runAvg speedWind from/ knotsBaromVisibWave heightAir tempDewpointWater temp
2017-May-25 17:58N 38°43' W 009°07'0 0.0
2017-May-25 17:25N 38°43' W 009°07'0 0.0
2017-May-25 16:58N 38°43' W 009°07'0 0.0
2017-May-25 16:28N 38°43' W 009°07'0 0.0
2017-May-25 15:55N 38°43' W 009°07'0 0.0
2017-May-25 15:28N 38°43' W 009°07'0 0.0
2017-May-25 14:58N 38°43' W 009°07'0 0.0
2017-May-25 14:25N 38°43' W 009°07'0 0.0
2017-May-25 13:28N 38°43' W 009°07'0 0.0
2017-May-25 12:55N 38°43' W 009°07'0 0.0
2017-May-25 12:28N 38°43' W 009°07'0 0.0
2017-May-25 11:46N 38°43' W 009°07'0 0.0
2017-May-25 11:25N 38°43' W 009°07'0 0.0
2017-May-25 10:58N 38°43' W 009°07'0 0.0
2017-May-25 10:28N 38°43' W 009°07'0 0.0
2017-May-25 09:58N 38°43' W 009°07'0 0.0
2017-May-25 09:28N 38°43' W 009°07'0 0.0
2017-May-25 08:58N 38°43' W 009°07'0 0.0
2017-May-25 08:28N 38°43' W 009°07'0 0.0
2017-May-25 08:00N 38°43' W 009°07'1 2.6
2017-May-25 07:30N 38°42' W 009°08'610.9
2017-May-25 07:00N 38°41' W 009°15'511.1
2017-May-25 06:30N 38°38' W 009°21'612.8
2017-May-25 06:00N 38°34' W 009°27'613.0
2017-May-25 05:30N 38°29' W 009°32'2 4.0
2017-May-25 05:00N 38°28' W 009°34'1 1.4
2017-May-25 04:30N 38°29' W 009°34'1 2.1
2017-May-25 04:00N 38°28' W 009°33'713.8
2017-May-25 03:31N 38°24' W 009°40'815.0
2017-May-25 03:00N 38°18' W 009°47'715.0
2017-May-25 02:30N 38°13' W 009°53'715.0
2017-May-25 02:00N 38°08' W 010°00'714.7
2017-May-25 01:31N 38°03' W 010°07'815.0
2017-May-25 01:00N 37°57' W 010°13'715.0
2017-May-25 00:30N 37°52' W 010°20'714.8
2017-May-25 00:00N 37°47' W 010°27'815.1
2017-May-24 23:30N 37°41' W 010°33'815.1
2017-May-24 23:00N 37°36' W 010°40'815.0
2017-May-24 22:30N 37°31' W 010°47'714.8
2017-May-24 22:00N 37°26' W 010°54'814.7
2017-May-24 21:30N 37°20' W 011°00'  
2017-May-21 06:53N 38°55' W 010°53'615.6
2017-May-21 06:30N 38°60' W 010°49'816.0
2017-May-21 06:00N 39°06' W 010°42'815.8
2017-May-21 05:30N 39°13' W 010°36'815.8
2017-May-21 05:00N 39°19' W 010°30'815.5
2017-May-21 04:30N 39°25' W 010°25'815.7
2017-May-21 04:00N 39°32' W 010°19'815.7
2017-May-21 03:30N 39°38' W 010°13'815.7
2017-May-21 03:01N 39°44' W 010°06'815.6
2017-May-21 02:30N 39°51' W 010°00'815.8
2017-May-21 02:00N 39°57' W 009°54'815.8
2017-May-21 01:30N 40°03' W 009°48'815.7
2017-May-21 01:00N 40°10' W 009°42'815.6
2017-May-21 00:30N 40°16' W 009°36'815.5
2017-May-21 00:00N 40°22' W 009°30'815.8
2017-May-20 23:30N 40°29' W 009°24'815.8
2017-May-20 23:00N 40°35' W 009°18'816.1
2017-May-20 22:30N 40°42' W 009°11'816.2
2017-May-20 22:00N 40°48' W 009°05'29 8.5
2017-May-20 18:35N 41°11' W 008°42'0 0.0
2017-May-20 18:09N 41°11' W 008°42'0 0.0
2017-May-20 18:00N 41°11' W 008°42'0 0.0
2017-May-20 17:30N 41°11' W 008°42'0 0.0
2017-May-20 16:52N 41°11' W 008°42'0 0.0
2017-May-20 16:29N 41°11' W 008°42'0 0.0
2017-May-20 16:00N 41°11' W 008°42'0 0.0
2017-May-20 15:30N 41°11' W 008°42'46 8.9
2017-May-20 10:21N 40°30' W 009°08'515.3
2017-May-20 10:00N 40°25' W 009°11'815.3
2017-May-20 09:30N 40°18' W 009°15'815.3
2017-May-20 08:59N 40°11' W 009°19'715.1
2017-May-20 08:30N 40°04' W 009°23'2514.7
2017-May-20 06:50N 39°42' W 009°37'914.3
2017-May-20 06:12N 39°33' W 009°41'314.2
2017-May-20 06:00N 39°31' W 009°42'713.7
2017-May-20 05:30N 39°24' W 009°43'713.7
2017-May-20 05:00N 39°17' W 009°43'713.7
2017-May-20 04:31N 39°10' W 009°43'714.0
2017-May-20 04:00N 39°03' W 009°43'714.2
2017-May-20 03:31N 38°56' W 009°43'714.0
2017-May-20 03:01N 38°49' W 009°43'713.7
2017-May-20 02:30N 38°42' W 009°42'611.4
2017-May-20 02:00N 38°38' W 009°36'815.1
2017-May-20 01:31N 38°37' W 009°27'815.2
2017-May-20 01:01N 38°40' W 009°18'713.1
2017-May-20 00:30N 38°42' W 009°10'4 8.1
2017-May-20 00:00N 38°44' W 009°06'0 0.0
2017-May-19 23:30N 38°44' W 009°06'0 0.0
2017-May-19 23:00N 38°44' W 009°06'0 0.0
2017-May-19 22:30N 38°44' W 009°06'0 0.0
2017-May-19 22:00N 38°44' W 009°06'0 0.0
2017-May-19 21:27N 38°44' W 009°06'0 0.0
2017-May-19 21:00N 38°44' W 009°06'0 0.0
2017-May-19 20:30N 38°44' W 009°06'0 0.0
2017-May-19 19:00N 38°44' W 009°06'0 0.0
2017-May-19 18:21N 38°44' W 009°06'0 0.0
2017-May-19 17:57N 38°44' W 009°06'0 0.0
2017-May-19 17:30N 38°44' W 009°06'0 0.0
2017-May-19 16:59N 38°44' W 009°06'0 0.0
2017-May-19 16:26N 38°44' W 009°06'0 0.0
2017-May-19 15:59N 38°44' W 009°06'0 0.0
2017-May-19 15:29N 38°44' W 009°06'0 0.0
2017-May-19 14:59N 38°44' W 009°06'0 0.0
2017-May-19 13:56N 38°44' W 009°06'0 0.0
2017-May-19 13:26N 38°44' W 009°06'0 0.0
2017-May-19 12:50N 38°44' W 009°06'0 0.0
2017-May-19 12:29N 38°44' W 009°06'0 0.0
2017-May-19 11:59N 38°44' W 009°06'0 0.0
2017-May-19 11:29N 38°44' W 009°06'0 0.0
2017-May-19 10:59N 38°44' W 009°06'0 0.0
2017-May-19 10:26N 38°44' W 009°06'0 0.0
2017-May-19 09:59N 38°44' W 009°06'0 0.0
2017-May-19 09:29N 38°44' W 009°06'0 0.0
2017-May-19 08:59N 38°44' W 009°06'0 0.0
2017-May-19 08:26N 38°44' W 009°06'0 0.0
2017-May-19 07:59N 38°44' W 009°06'0 0.0
2017-May-19 07:29N 38°44' W 009°06'0 0.0
2017-May-19 06:59N 38°44' W 009°06'0 0.0
2017-May-19 06:26N 38°44' W 009°06'0 0.6
2017-May-19 06:01N 38°44' W 009°06'611.9
2017-May-19 05:30N 38°41' W 009°12'4 7.6
2017-May-19 05:00N 38°41' W 009°17'510.8
2017-May-19 04:30N 38°37' W 009°22'611.5
2017-May-19 04:00N 38°33' W 009°27'612.2
2017-May-19 03:30N 38°29' W 009°33'511.0
2017-May-19 03:00N 38°25' W 009°38'510.6
2017-May-19 02:31N 38°21' W 009°43'510.5
2017-May-19 02:01N 38°18' W 009°48'610.9
2017-May-19 01:29N 38°13' W 009°53'  
2017-May-16 18:04N 32°44' W 016°44'0 0.0
2017-May-16 11:06N 32°44' W 016°44'0 0.0
2017-May-16 10:51N 32°44' W 016°44'0 0.0
2017-May-16 06:33N 32°44' W 016°44'12811.9
2017-May-15 19:46N 34°22' W 015°04'  
Track history (hours):
 
Tides and Currents Weather Stations Pressure Air Temp Water Temp Dewpoint Dewpoint Depression Visibility Wind Speed Wind Dir Waves Ship Positions

Insular

Last reported at 2017-May-25 17:58 UTC. Time now 2017-May-25 18:01 UTC.
Position N 38°43' W 009°07'.

Length 120 m; draft 5.1 m.

Type: Ship (hazmat cat A). MMSI: 255806013.

Date/timePositionNaut miles runAvg speedWind from/ knotsBaromVisibWave heightAir tempDewpointWater temp
2017-May-25 17:58N 38°43' W 009°07'0 0.0
2017-May-25 17:25N 38°43' W 009°07'0 0.0
2017-May-25 16:58N 38°43' W 009°07'0 0.0
2017-May-25 16:28N 38°43' W 009°07'0 0.0
2017-May-25 15:55N 38°43' W 009°07'0 0.0
2017-May-25 15:28N 38°43' W 009°07'0 0.0
2017-May-25 14:58N 38°43' W 009°07'0 0.0
2017-May-25 14:25N 38°43' W 009°07'0 0.0
2017-May-25 13:28N 38°43' W 009°07'0 0.0
2017-May-25 12:55N 38°43' W 009°07'0 0.0
2017-May-25 12:28N 38°43' W 009°07'0 0.0
2017-May-25 11:46N 38°43' W 009°07'0 0.0
2017-May-25 11:25N 38°43' W 009°07'0 0.0
2017-May-25 10:58N 38°43' W 009°07'0 0.0
2017-May-25 10:28N 38°43' W 009°07'0 0.0
2017-May-25 09:58N 38°43' W 009°07'0 0.0
2017-May-25 09:28N 38°43' W 009°07'0 0.0
2017-May-25 08:58N 38°43' W 009°07'0 0.0
2017-May-25 08:28N 38°43' W 009°07'0 0.0
2017-May-25 08:00N 38°43' W 009°07'1 2.6
2017-May-25 07:30N 38°42' W 009°08'610.9
2017-May-25 07:00N 38°41' W 009°15'511.1
2017-May-25 06:30N 38°38' W 009°21'612.8
2017-May-25 06:00N 38°34' W 009°27'613.0
2017-May-25 05:30N 38°29' W 009°32'2 4.0
2017-May-25 05:00N 38°28' W 009°34'1 1.4
2017-May-25 04:30N 38°29' W 009°34'1 2.1
2017-May-25 04:00N 38°28' W 009°33'713.8
2017-May-25 03:31N 38°24' W 009°40'815.0
2017-May-25 03:00N 38°18' W 009°47'715.0
2017-May-25 02:30N 38°13' W 009°53'715.0
2017-May-25 02:00N 38°08' W 010°00'714.7
2017-May-25 01:31N 38°03' W 010°07'815.0
2017-May-25 01:00N 37°57' W 010°13'715.0
2017-May-25 00:30N 37°52' W 010°20'714.8
2017-May-25 00:00N 37°47' W 010°27'815.1
2017-May-24 23:30N 37°41' W 010°33'815.1
2017-May-24 23:00N 37°36' W 010°40'815.0
2017-May-24 22:30N 37°31' W 010°47'714.8
2017-May-24 22:00N 37°26' W 010°54'814.7
2017-May-24 21:30N 37°20' W 011°00'  
2017-May-21 06:53N 38°55' W 010°53'615.6
2017-May-21 06:30N 38°60' W 010°49'816.0
2017-May-21 06:00N 39°06' W 010°42'815.8
2017-May-21 05:30N 39°13' W 010°36'815.8
2017-May-21 05:00N 39°19' W 010°30'815.5
2017-May-21 04:30N 39°25' W 010°25'815.7
2017-May-21 04:00N 39°32' W 010°19'815.7
2017-May-21 03:30N 39°38' W 010°13'815.7
2017-May-21 03:01N 39°44' W 010°06'815.6
2017-May-21 02:30N 39°51' W 010°00'815.8
2017-May-21 02:00N 39°57' W 009°54'815.8
2017-May-21 01:30N 40°03' W 009°48'815.7
2017-May-21 01:00N 40°10' W 009°42'815.6
2017-May-21 00:30N 40°16' W 009°36'815.5
2017-May-21 00:00N 40°22' W 009°30'815.8
2017-May-20 23:30N 40°29' W 009°24'815.8
2017-May-20 23:00N 40°35' W 009°18'816.1
2017-May-20 22:30N 40°42' W 009°11'816.2
2017-May-20 22:00N 40°48' W 009°05'29 8.5
2017-May-20 18:35N 41°11' W 008°42'0 0.0
2017-May-20 18:09N 41°11' W 008°42'0 0.0
2017-May-20 18:00N 41°11' W 008°42'0 0.0
2017-May-20 17:30N 41°11' W 008°42'0 0.0
2017-May-20 16:52N 41°11' W 008°42'0 0.0
2017-May-20 16:29N 41°11' W 008°42'0 0.0
2017-May-20 16:00N 41°11' W 008°42'0 0.0
2017-May-20 15:30N 41°11' W 008°42'46 8.9
2017-May-20 10:21N 40°30' W 009°08'515.3
2017-May-20 10:00N 40°25' W 009°11'815.3
2017-May-20 09:30N 40°18' W 009°15'815.3
2017-May-20 08:59N 40°11' W 009°19'715.1
2017-May-20 08:30N 40°04' W 009°23'2514.7
2017-May-20 06:50N 39°42' W 009°37'914.3
2017-May-20 06:12N 39°33' W 009°41'314.2
2017-May-20 06:00N 39°31' W 009°42'713.7
2017-May-20 05:30N 39°24' W 009°43'713.7
2017-May-20 05:00N 39°17' W 009°43'713.7
2017-May-20 04:31N 39°10' W 009°43'714.0
2017-May-20 04:00N 39°03' W 009°43'714.2
2017-May-20 03:31N 38°56' W 009°43'714.0
2017-May-20 03:01N 38°49' W 009°43'713.7
2017-May-20 02:30N 38°42' W 009°42'611.4
2017-May-20 02:00N 38°38' W 009°36'815.1
2017-May-20 01:31N 38°37' W 009°27'815.2
2017-May-20 01:01N 38°40' W 009°18'713.1
2017-May-20 00:30N 38°42' W 009°10'4 8.1
2017-May-20 00:00N 38°44' W 009°06'0 0.0
2017-May-19 23:30N 38°44' W 009°06'0 0.0
2017-May-19 23:00N 38°44' W 009°06'0 0.0
2017-May-19 22:30N 38°44' W 009°06'0 0.0
2017-May-19 22:00N 38°44' W 009°06'0 0.0
2017-May-19 21:27N 38°44' W 009°06'0 0.0
2017-May-19 21:00N 38°44' W 009°06'0 0.0
2017-May-19 20:30N 38°44' W 009°06'0 0.0
2017-May-19 19:00N 38°44' W 009°06'0 0.0
2017-May-19 18:21N 38°44' W 009°06'0 0.0
2017-May-19 17:57N 38°44' W 009°06'0 0.0
2017-May-19 17:30N 38°44' W 009°06'0 0.0
2017-May-19 16:59N 38°44' W 009°06'0 0.0
2017-May-19 16:26N 38°44' W 009°06'0 0.0
2017-May-19 15:59N 38°44' W 009°06'0 0.0
2017-May-19 15:29N 38°44' W 009°06'0 0.0
2017-May-19 14:59N 38°44' W 009°06'0 0.0
2017-May-19 13:56N 38°44' W 009°06'0 0.0
2017-May-19 13:26N 38°44' W 009°06'0 0.0
2017-May-19 12:50N 38°44' W 009°06'0 0.0
2017-May-19 12:29N 38°44' W 009°06'0 0.0
2017-May-19 11:59N 38°44' W 009°06'0 0.0
2017-May-19 11:29N 38°44' W 009°06'0 0.0
2017-May-19 10:59N 38°44' W 009°06'0 0.0
2017-May-19 10:26N 38°44' W 009°06'0 0.0
2017-May-19 09:59N 38°44' W 009°06'0 0.0
2017-May-19 09:29N 38°44' W 009°06'0 0.0
2017-May-19 08:59N 38°44' W 009°06'0 0.0
2017-May-19 08:26N 38°44' W 009°06'0 0.0
2017-May-19 07:59N 38°44' W 009°06'0 0.0
2017-May-19 07:29N 38°44' W 009°06'0 0.0
2017-May-19 06:59N 38°44' W 009°06'0 0.0
2017-May-19 06:26N 38°44' W 009°06'0 0.6
2017-May-19 06:01N 38°44' W 009°06'611.9
2017-May-19 05:30N 38°41' W 009°12'4 7.6
2017-May-19 05:00N 38°41' W 009°17'510.8
2017-May-19 04:30N 38°37' W 009°22'611.5
2017-May-19 04:00N 38°33' W 009°27'612.2
2017-May-19 03:30N 38°29' W 009°33'511.0
2017-May-19 03:00N 38°25' W 009°38'510.6
2017-May-19 02:31N 38°21' W 009°43'510.5
2017-May-19 02:01N 38°18' W 009°48'610.9
2017-May-19 01:29N 38°13' W 009°53'  
2017-May-16 18:04N 32°44' W 016°44'0 0.0
2017-May-16 11:06N 32°44' W 016°44'0 0.0
2017-May-16 10:51N 32°44' W 016°44'0 0.0
2017-May-16 06:33N 32°44' W 016°44'12811.9
2017-May-15 19:46N 34°22' W 015°04'  

Dump ship's entire track history